EA1ABW-2
43.24.77N 005.47.77W
IN73CJ aprs.fi
zuletzt gehoert:
2022-10-02T01:00:30Z
zuerst gehoert:
2022-06-05T12:27:25Z

APRS Siero [IN73CJ], 2 Stunde(n), EA1ABW-2 [03:05:32, 0s].
EA1ABW 43.24.77N 005.47.77WIN73CJ 0.728km 324°NW01:00:30ZMMDVM MMDVM HS Hat 439.8250/439.8250 CC1(3EA1ABW-2)
EA1IPU 43.26.21N 005.46.62WIN73CK 3.449km 19°NNE01:01:08ZMMDVM MMDVM HS Hat 439.8000/439.8000 CC1(3EA1IPU-1)
LEMR 43.25.83N 005.49.60WIN73CK 3.845km 311°NW01:00:03ZAerodromo de la Morgal (123.500MHz): LEAS 020000Z 00000KT 9999 OVC021 18/15 Q1026=
LEHU 43.22.63N 005.49.57WIN73CJ 4.434km 220°SW01:00:03ZHelipuerto del HUCA: LEAS 020000Z 00000KT 9999 OVC021 18/15 Q1026=
LEGM 43.26.15N 005.49.84WIN73CK 4.488km 315°NW01:00:03ZHelipuerto de La Morgal (123.500MHz): LEAS 020000Z 00000KT 9999 OVC021 18/15 Q1026=
EA1JBU 43.21.85N 005.51.13WIN73BI 6.925km 226°SW01:00:06ZEA1JBU(3EA1JBU-1)
33D00 43.21.63N 005.51.13WIN73BI 7.207km 223°SW01:01:44Z33-D-00 Protección Civil REMER / Delegación del Gobierno en Asturias
ED1ZAU 43.23.04N 005.52.75WIN73BJ 7.604km 250°WSW01:00:18ZRD625 438.5000/430.9000 CC1
EA1L 43.20.37N 005.51.13WIN73BI 9.034km 213°SSW01:05:04Zea1l@ure.es V=13.0V
Wind 083°/000kn, Böen bis 000kn, Temp 17.78c, Regen 0.0mm, letzte 24h 0.0mm, seit 0h 0.0mm, Baro 1024.7h, Hum: 94%(2EA1L-13)
EA1HWX 43.19.28N 005.50.98WIN73BH 10.708km 206°SSW01:01:50ZDMO - UHF 439.7250/431.0000 CC11(3EA1HWX-2)
MMDVM DMO 222.3400/222.3400 CC1(2EA1HWX-10)
ED1ZAS 43.27.52N 005.40.17WIN73DL 11.328km 60°ENE01:00:20ZRD985 438.2250/430.6250 CC1
ED1ZAE 43.27.99N 005.40.54WIN73DL 11.368km 55°NE01:01:15Z2m Voice 145.5875 -0.600 Mhz(3ED1ZAE-C)
WIDE3-3 ESAS3-3 IN73DL WWW.EA1URG.ORG(2ED1ZAE-3)
EA4ACU 43.29.56N 005.38.92WIN73EL 14.877km 50°NE01:01:43ZMMDVM MMDVM HS Hat 432.7000/432.7000 CC1(3EA4ACU-1)
ED1ZAY 43.29.47N 005.56.54WIN73AL 15.359km 307°NW01:00:18ZRD625 438.3000/430.7000 CC1
EA1FLQ 43.22.00N 005.36.35WIN73EI 15.630km 107°ESE01:01:32ZMMDVM DVMega 430.9750/430.9750 CC1
EB1TK 43.32.22N 005.42.32WIN73DM 15.968km 26°NNE01:00:20ZWind 210°/001kn, Böen bis 002kn, Temp 17.78c, Regen 0.0mm, letzte 24h 0.0mm, seit 0h 0.0mm, Baro 1028.8h, Hum: 90%(3EB1TK-13)
EA1FFA 43.31.53N 005.40.64WIN73DM 16.006km 35°NE01:01:26ZMMDVM MMDVM HS Hat 438.8000/438.8000 CC1(3EA1FFA-1)
EA1FPN 43.32.39N 005.42.17WIN73DM 16.323km 26°NNE01:00:46ZMMDVM MMDVM HS Hat 439.8750/439.8750 CC1
EA1IEJ 43.31.83N 005.40.22WIN73DM 16.762km 35°NE01:01:47ZMMDVM MMDVM HS Hat 438.8500/438.8500 CC6(3EA1IEJ-1)
MMDVM DMO 222.3400/222.3400 CC1(2EA1IEJ-11)
LEEL 43.32.98N 005.41.71WIN73DN 17.571km 26°NNE01:00:03ZHelipuerto de El Musel: LEAS 020000Z 00000KT 9999 OVC021 18/15 Q1026=
EA1AHA 43.32.72N 005.54.38WIN73BN 17.923km 329°NNW00:32:29ZWind 000°/000kn, Böen bis 000kn, Temp 18.89c, Regen 0.0mm, letzte 24h 0.0mm, seit 0h 0.0mm, Baro 1027.9h, Hum: 78%(3EA1AHA-13)
EB1GEM 43.30.00N 005.36.07WIN73EM 18.452km 56°NE01:01:30ZWX3in1Plus2.0 U=13.3V,T=??.?C/??.?F(3EB1GEM-3)
EA1IMW 43.14.36N 005.46.93WIN73CF 18.732km 178°S01:01:55ZGRUPO RADIO GALENA (GRG) 430.4500/430.4500 CC1(3EA1IMW-1)
EB1DGC 43.12.60N 005.45.59WIN73CF 22.123km 173°S01:00:48ZMMDVM MMDVM HS Hat 433.4500/433.4500 CC1
EA1JBL 43.12.28N 005.47.42WIN73CE 22.554km 180°S01:00:33ZMMDVM DVMega 435.3000/435.3000 CC1
EA1HWA 43.12.00N 005.47.40WIN73CE 23.092km 180°S01:00:55ZMMDVM MMDVM HS Hat 433.4500/433.4500 CC1
EA1HJA 43.28.10N 005.30.45WIN73FL 23.861km 73°ENE01:03:58Z IN73FL WX3IN1+ 2.0 - V=13.5V,TX TEMP=45.3C
IN73FL WX3IN1+ 2.0 - V=13.2V,TX TEMP=31.8C(2EA1HJA-2)
EA1RCG 43.09.45N 005.49.78WIN73CD 27.975km 186°S01:00:37ZGRUPO RADIO GALENA (GRG) 430.4500/430.4500 CC1(3EA1RCG-3)
EA1JW 43.31.35N 005.28.83WIN73GM 28.121km 63°ENE01:00:48ZMMDVM MMDVM HS Hat 436.5000/436.5000 CC1(3EA1JW-3)
EA1JAY 43.29.33N 005.26.78WIN73GL 29.254km 72°ENE01:00:06Z434.525MHz Nodo TETRA DMO(3EA1JAY-4)
EA1JAY(2EA1JAY-2)
EA1FHR 43.28.72N 005.26.41WIN73GL 29.388km 74°ENE01:00:59ZMMDVM MMDVM HS Hat 439.1500/439.1500 CC1
EA1HWD 43.28.96N 005.26.30WIN73GL 29.664km 74°ENE01:01:28ZMMDVM MMDVM HS Hat 434.2500/434.2500 CC1
ED1ZAD 43.07.90N 005.38.52WIN73ED 32.953km 158°SSE00:55:07ZED1ZAD-3 APRS Digi/Igate(3ED1ZAD-3)
EA1DZR 43.12.88N 005.24.00WIN73HF 38.216km 124°SE00:51:16ZMMDVM DVMega 431.1000/431.1000 CC1(3EA1DZR-1)
MMDVM MMDVM HS Hat 432.2000/432.2000 CC2(2EA1DZR-2)
MMDVM DV ADER 434.3500/434.3500 CC1(2EA1DZR-4)
440 MMDVM Voice 433.10000MHz +0.0000MHz, APRS for DMRGateway(2EA1DZR-D)
EC1KV 43.34.01N 006.16.01WIN63UN 42.261km 295°WNW00:46:37ZALBUERNE(3EC1KV-1)
EA1JBE 43.30.90N 005.16.15WIN73IM 43.770km 74°ENE01:02:56ZMAIN QTH http://qrz.com/db/ea1jbe(3EA1JBE-1)
MAIN QTH http://qrz.com/db/ea1jbe(2EA1JBE-13)
LETN 43.20.05N 006.22.69WIN63TI 48.163km 260°W01:00:03ZAerodromo de La Curiscada (Tineo): LEAS 020000Z 00000KT 9999 OVC021 18/15 Q1026=

aprs.pl 5.0.011w DL3EL © 2006-2021 [5742591]